Kapetanios — 9LU2085 — position and weather

sailwx.info

Track history (hours):
 
Tides and Currents Weather Stations Pressure Air Temp Water Temp Dewpoint Dewpoint Depression Visibility Wind Speed Wind Dir Waves Ship Positions

Kapetanios

Last reported at 2017-Oct-07 19:30 UTC. Time now 2017-Dec-15 21:51 UTC.
Position N 35°51' E 030°23'.
Warning: this ship's position is months out of date.

Length 94 m; draft 5.9 m.

Type: Cargo ship. MMSI: 667001282.

Date/timePositionNaut miles runAvg speedWind from/ knotsBaromVisibWave heightAir tempDewpointWater temp
2017-Oct-07 19:30N 35°51' E 030°23'307 6.7
2017-Oct-05 21:25N 39°36' E 025°60'156 4.5
2017-Oct-04 11:02N 40°58' E 028°54'0 3.6
2017-Oct-04 11:01N 40°58' E 028°54'3 5.5
2017-Oct-04 10:30N 40°58' E 028°58'152 5.0
2017-Oct-03 03:52N 43°31' E 028°46'4 9.5
2017-Oct-03 03:28N 43°34' E 028°47'4 9.0
2017-Oct-03 03:00N 43°38' E 028°49'4 8.3
2017-Oct-03 02:30N 43°42' E 028°49'4 8.2
2017-Oct-03 02:00N 43°46' E 028°50'3 6.8
2017-Oct-03 01:31N 43°50' E 028°50'4 7.1
2017-Oct-03 01:01N 43°53' E 028°49'4 8.3
2017-Oct-03 00:30N 43°57' E 028°48'4 7.8
2017-Oct-03 00:00N 44°01' E 028°47'4 8.1
2017-Oct-02 23:31N 44°04' E 028°43'4 7.5
2017-Oct-02 23:00N 44°08' E 028°41'2 4.6
2017-Oct-02 22:31N 44°10' E 028°39'0 0.3
2017-Oct-02 22:00N 44°09' E 028°39'0 0.0
2017-Oct-02 21:27N 44°09' E 028°39'0 0.0
2017-Oct-02 21:00N 44°09' E 028°39'0 0.0
2017-Oct-02 20:30N 44°09' E 028°39'0 0.0
2017-Oct-02 20:00N 44°09' E 028°39'0 0.0
2017-Oct-02 19:30N 44°09' E 028°39'0 0.0
2017-Oct-02 19:00N 44°09' E 028°39'0 0.0
2017-Oct-02 18:30N 44°09' E 028°39'0 0.0
2017-Oct-02 18:00N 44°09' E 028°39'0 0.0
2017-Oct-02 17:30N 44°09' E 028°39'0 0.0
2017-Oct-02 16:57N 44°09' E 028°39'0 0.0
2017-Oct-02 16:30N 44°09' E 028°39'0 0.0
2017-Oct-02 16:00N 44°09' E 028°39'0 0.0
2017-Oct-02 15:30N 44°09' E 028°39'0 0.0
2017-Oct-02 15:00N 44°09' E 028°39'0 0.0
2017-Oct-02 14:30N 44°09' E 028°39'0 0.0
2017-Oct-02 14:00N 44°09' E 028°39'0 0.0
2017-Oct-02 13:30N 44°09' E 028°39'0 0.0
2017-Oct-02 13:00N 44°09' E 028°39'0 0.0
2017-Oct-02 12:30N 44°09' E 028°39'0 0.0
2017-Oct-02 12:00N 44°09' E 028°39'0 0.0
2017-Oct-02 11:30N 44°09' E 028°39'0 0.0
2017-Oct-02 11:00N 44°09' E 028°39'0 0.0
2017-Oct-02 10:30N 44°09' E 028°39'0 0.0
2017-Oct-02 10:00N 44°09' E 028°39'0 0.0
2017-Oct-02 09:30N 44°09' E 028°39'0 0.0
2017-Oct-02 09:00N 44°09' E 028°39'0 0.0
2017-Oct-02 08:30N 44°09' E 028°39'0 0.0
2017-Oct-02 08:00N 44°09' E 028°39'0 0.0
2017-Oct-02 07:30N 44°09' E 028°39'0 0.0
2017-Oct-02 07:00N 44°09' E 028°39'0 0.0
2017-Oct-02 06:30N 44°09' E 028°39'0 0.0
2017-Oct-02 06:00N 44°09' E 028°39'0 0.0
2017-Oct-02 05:30N 44°09' E 028°39'0 0.0
2017-Oct-02 05:00N 44°09' E 028°39'0 0.0
2017-Oct-02 04:30N 44°09' E 028°39'0 0.0
2017-Oct-02 04:00N 44°09' E 028°39'0 0.0
2017-Oct-02 03:30N 44°09' E 028°39'0 0.0
2017-Oct-02 03:00N 44°09' E 028°39'0 0.0
2017-Oct-02 02:30N 44°09' E 028°39'0 0.0
2017-Oct-02 02:00N 44°09' E 028°39'0 0.0
2017-Oct-02 01:30N 44°09' E 028°39'0 0.0
2017-Oct-02 01:00N 44°09' E 028°39'0 0.0
2017-Oct-02 00:30N 44°09' E 028°39'0 0.0
2017-Oct-02 00:00N 44°09' E 028°39'0 0.0
2017-Oct-01 23:30N 44°09' E 028°39'0 0.0
2017-Oct-01 23:00N 44°09' E 028°39'0 0.0
2017-Oct-01 22:30N 44°09' E 028°39'0 0.0
2017-Oct-01 22:00N 44°09' E 028°39'0 0.0
2017-Oct-01 21:30N 44°09' E 028°39'0 0.0
2017-Oct-01 21:00N 44°09' E 028°39'0 0.0
2017-Oct-01 20:30N 44°09' E 028°39'0 0.0
2017-Oct-01 20:00N 44°09' E 028°39'0 0.0
2017-Oct-01 19:30N 44°09' E 028°39'0 0.0
2017-Oct-01 19:00N 44°09' E 028°39'0 0.0
2017-Oct-01 18:30N 44°09' E 028°39'0 0.0
2017-Oct-01 18:00N 44°09' E 028°39'0 0.0
2017-Oct-01 17:27N 44°09' E 028°39'0 0.0
2017-Oct-01 17:00N 44°09' E 028°39'0 0.0
2017-Oct-01 16:30N 44°09' E 028°39'0 0.0
2017-Oct-01 16:00N 44°09' E 028°39'0 0.0
2017-Oct-01 15:30N 44°09' E 028°39'0 0.0
2017-Oct-01 15:00N 44°09' E 028°39'0 0.0
2017-Oct-01 14:27N 44°09' E 028°39'0 0.0
2017-Oct-01 14:00N 44°09' E 028°39'0 0.0
2017-Oct-01 13:30N 44°09' E 028°39'0 0.0
2017-Oct-01 13:00N 44°09' E 028°39'0 0.0
2017-Oct-01 12:30N 44°09' E 028°39'0 0.0
2017-Oct-01 12:00N 44°09' E 028°39'0 0.0
2017-Oct-01 11:30N 44°09' E 028°39'0 0.0
2017-Oct-01 11:00N 44°09' E 028°39'0 0.0
2017-Oct-01 10:30N 44°09' E 028°39'0 0.0
2017-Oct-01 10:00N 44°09' E 028°39'0 0.0
2017-Oct-01 09:30N 44°09' E 028°39'0 0.0
2017-Oct-01 09:00N 44°09' E 028°39'0 0.0
2017-Oct-01 08:30N 44°09' E 028°39'0 0.0
2017-Oct-01 08:00N 44°09' E 028°39'0 0.0
2017-Oct-01 07:30N 44°09' E 028°39'0 0.0
2017-Oct-01 07:00N 44°09' E 028°39'0 0.0
2017-Oct-01 06:30N 44°09' E 028°39'0 0.0
2017-Oct-01 06:00N 44°09' E 028°39'0 0.0
2017-Oct-01 05:30N 44°09' E 028°39'0 0.0
2017-Oct-01 05:00N 44°09' E 028°39'0 0.0
2017-Oct-01 04:27N 44°09' E 028°39'0 0.0
2017-Oct-01 04:00N 44°09' E 028°39'0 0.0
2017-Oct-01 03:30N 44°09' E 028°39'0 0.0
2017-Oct-01 03:00N 44°09' E 028°39'0 0.0
2017-Sep-30 02:00N 44°09' E 028°39'0 0.0
2017-Sep-30 01:30N 44°09' E 028°39'0 0.0
2017-Sep-30 01:00N 44°09' E 028°39'0 0.0
2017-Sep-30 00:30N 44°09' E 028°39'0 0.0
2017-Sep-30 00:00N 44°09' E 028°39'0 0.0
2017-Sep-29 23:30N 44°09' E 028°39'0 0.0
2017-Sep-29 23:00N 44°09' E 028°39'0 0.0
2017-Sep-29 22:30N 44°09' E 028°39'0 0.0
2017-Sep-29 22:00N 44°09' E 028°39'0 0.0
2017-Sep-29 21:30N 44°09' E 028°39'0 0.0
2017-Sep-29 21:00N 44°09' E 028°39'0 0.0
2017-Sep-29 20:30N 44°09' E 028°39'0 0.0
2017-Sep-29 20:00N 44°09' E 028°39'0 0.0
2017-Sep-29 19:27N 44°09' E 028°39'0 0.0
2017-Sep-29 19:00N 44°09' E 028°39'0 0.0
2017-Sep-29 18:30N 44°09' E 028°39'0 0.0
2017-Sep-29 18:00N 44°09' E 028°39'0 0.0
2017-Sep-29 17:30N 44°09' E 028°39'0 0.0
2017-Sep-29 17:00N 44°09' E 028°39'0 0.0
2017-Sep-29 16:30N 44°09' E 028°39'0 0.0
2017-Sep-29 16:00N 44°09' E 028°39'0 0.0
2017-Sep-29 15:30N 44°09' E 028°39'0 0.0
2017-Sep-29 15:00N 44°09' E 028°39'0 0.0
2017-Sep-29 14:30N 44°09' E 028°39'0 0.0
2017-Sep-29 14:00N 44°09' E 028°39'0 0.0
2017-Sep-29 13:30N 44°09' E 028°39'0 0.0
2017-Sep-29 13:00N 44°09' E 028°39'0 0.0
2017-Sep-29 12:27N 44°09' E 028°39'0 0.0
2017-Sep-29 12:00N 44°09' E 028°39'0 0.0
2017-Sep-29 11:30N 44°09' E 028°39'0 0.0
2017-Sep-29 11:00N 44°09' E 028°39'0 0.0
2017-Sep-29 10:30N 44°09' E 028°39'0 0.0
2017-Sep-29 09:57N 44°09' E 028°39'0 0.0
2017-Sep-29 09:30N 44°09' E 028°39'0 0.0
2017-Sep-29 09:00N 44°09' E 028°39'0 0.0
2017-Sep-29 08:30N 44°09' E 028°39'0 0.0
2017-Sep-29 08:00N 44°09' E 028°39'0 0.0
2017-Sep-29 07:30N 44°09' E 028°39'0 0.0
2017-Sep-29 07:00N 44°09' E 028°39'0 0.0
2017-Sep-29 06:30N 44°09' E 028°39'0 0.0
2017-Sep-29 05:57N 44°09' E 028°39'0 0.0
2017-Sep-29 05:30N 44°09' E 028°39'0 0.0
2017-Sep-29 05:00N 44°09' E 028°39'0 0.0
2017-Sep-29 04:30N 44°09' E 028°39'0 0.0
2017-Sep-29 04:00N 44°09' E 028°39'0 0.0
2017-Sep-29 03:30N 44°09' E 028°39'0 0.0
2017-Sep-29 03:00N 44°09' E 028°39'0 0.0
2017-Sep-29 02:30N 44°09' E 028°39'0 0.0
2017-Sep-29 02:00N 44°09' E 028°39'0 0.0
2017-Sep-29 01:30N 44°09' E 028°39'0 0.0
2017-Sep-29 01:00N 44°09' E 028°39'0 0.0
2017-Sep-29 00:30N 44°09' E 028°39'0 0.0
2017-Sep-29 00:00N 44°09' E 028°39'0 0.0
2017-Sep-28 23:30N 44°09' E 028°39'0 0.0
2017-Sep-28 23:00N 44°09' E 028°39'0 0.0
2017-Sep-28 22:30N 44°09' E 028°39'0 0.0
2017-Sep-28 22:00N 44°09' E 028°39'0 0.0
2017-Sep-28 21:30N 44°09' E 028°39'0 0.0
2017-Sep-28 21:00N 44°09' E 028°39'0 0.0
2017-Sep-28 20:30N 44°09' E 028°39'0 0.0
2017-Sep-28 19:57N 44°09' E 028°39'0 0.0
2017-Sep-28 19:30N 44°09' E 028°39'0 0.0
2017-Sep-28 19:00N 44°09' E 028°39'0 0.0
2017-Sep-28 18:30N 44°09' E 028°39'0 0.0
2017-Sep-28 18:00N 44°09' E 028°39'0 0.0
2017-Sep-28 17:30N 44°09' E 028°39'0 0.0
2017-Sep-28 17:00N 44°09' E 028°39'0 0.0
2017-Sep-28 16:30N 44°09' E 028°39'0 0.0
2017-Sep-28 15:57N 44°09' E 028°39'0 0.0
2017-Sep-28 15:30N 44°09' E 028°39'0 0.0
2017-Sep-28 15:00N 44°09' E 028°39'0 0.0
2017-Sep-28 14:30N 44°09' E 028°39'0 0.0
2017-Sep-28 13:54N 44°09' E 028°39'0 0.0
2017-Sep-28 13:30N 44°09' E 028°39'0 0.0
2017-Sep-28 12:57N 44°09' E 028°39'0 0.0
2017-Sep-28 12:30N 44°09' E 028°39'0 0.0
2017-Sep-28 12:00N 44°09' E 028°39'0 0.0
2017-Sep-28 11:27N 44°09' E 028°39'0 0.0
2017-Sep-28 11:00N 44°09' E 028°39'0 0.0
2017-Sep-28 10:30N 44°09' E 028°39'0 0.0
2017-Sep-28 09:57N 44°09' E 028°39'0 0.0
2017-Sep-28 09:30N 44°09' E 028°39'0 0.0
2017-Sep-28 09:00N 44°09' E 028°39'0 0.0
2017-Sep-28 08:30N 44°09' E 028°39'0 0.0
2017-Sep-28 08:00N 44°09' E 028°39'0 0.0
2017-Sep-28 07:30N 44°09' E 028°39'0 0.0
2017-Sep-28 07:00N 44°09' E 028°39'0 0.0
2017-Sep-28 06:30N 44°09' E 028°39'0 0.0
2017-Sep-28 06:00N 44°09' E 028°39'0 0.0
2017-Sep-28 05:30N 44°09' E 028°39'0 0.0
2017-Sep-28 05:00N 44°09' E 028°39'0 0.0
2017-Sep-28 04:30N 44°09' E 028°39'0 0.0
2017-Sep-28 04:00N 44°09' E 028°39'0 0.0
2017-Sep-28 03:30N 44°09' E 028°39'0 0.0
2017-Sep-28 03:00N 44°09' E 028°39'0 0.0
2017-Sep-28 02:30N 44°09' E 028°39'0 0.0
2017-Sep-28 02:00N 44°09' E 028°39'0 0.0
2017-Sep-28 01:30N 44°09' E 028°39'0 0.0
2017-Sep-28 01:00N 44°09' E 028°39'0 0.0
2017-Sep-28 00:30N 44°09' E 028°39'0 0.0
2017-Sep-28 00:00N 44°09' E 028°39'0 0.0
2017-Sep-27 23:30N 44°09' E 028°39'0 0.0
2017-Sep-27 23:00N 44°09' E 028°39'0 0.0
2017-Sep-27 22:30N 44°09' E 028°39'0 0.0
2017-Sep-27 22:00N 44°09' E 028°39'0 0.0
2017-Sep-27 21:30N 44°09' E 028°39'0 0.0
2017-Sep-27 21:00N 44°09' E 028°39'0 0.0
2017-Sep-27 20:27N 44°09' E 028°39'0 0.0
2017-Sep-27 20:00N 44°09' E 028°39'  
Track history (hours):
 
Tides and Currents Weather Stations Pressure Air Temp Water Temp Dewpoint Dewpoint Depression Visibility Wind Speed Wind Dir Waves Ship Positions

Kapetanios

Last reported at 2017-Oct-07 19:30 UTC. Time now 2017-Dec-15 21:51 UTC.
Position N 35°51' E 030°23'.
Warning: this ship's position is months out of date.

Length 94 m; draft 5.9 m.

Type: Cargo ship. MMSI: 667001282.

Date/timePositionNaut miles runAvg speedWind from/ knotsBaromVisibWave heightAir tempDewpointWater temp
2017-Oct-07 19:30N 35°51' E 030°23'307 6.7
2017-Oct-05 21:25N 39°36' E 025°60'156 4.5
2017-Oct-04 11:02N 40°58' E 028°54'0 3.6
2017-Oct-04 11:01N 40°58' E 028°54'3 5.5
2017-Oct-04 10:30N 40°58' E 028°58'152 5.0
2017-Oct-03 03:52N 43°31' E 028°46'4 9.5
2017-Oct-03 03:28N 43°34' E 028°47'4 9.0
2017-Oct-03 03:00N 43°38' E 028°49'4 8.3
2017-Oct-03 02:30N 43°42' E 028°49'4 8.2
2017-Oct-03 02:00N 43°46' E 028°50'3 6.8
2017-Oct-03 01:31N 43°50' E 028°50'4 7.1
2017-Oct-03 01:01N 43°53' E 028°49'4 8.3
2017-Oct-03 00:30N 43°57' E 028°48'4 7.8
2017-Oct-03 00:00N 44°01' E 028°47'4 8.1
2017-Oct-02 23:31N 44°04' E 028°43'4 7.5
2017-Oct-02 23:00N 44°08' E 028°41'2 4.6
2017-Oct-02 22:31N 44°10' E 028°39'0 0.3
2017-Oct-02 22:00N 44°09' E 028°39'0 0.0
2017-Oct-02 21:27N 44°09' E 028°39'0 0.0
2017-Oct-02 21:00N 44°09' E 028°39'0 0.0
2017-Oct-02 20:30N 44°09' E 028°39'0 0.0
2017-Oct-02 20:00N 44°09' E 028°39'0 0.0
2017-Oct-02 19:30N 44°09' E 028°39'0 0.0
2017-Oct-02 19:00N 44°09' E 028°39'0 0.0
2017-Oct-02 18:30N 44°09' E 028°39'0 0.0
2017-Oct-02 18:00N 44°09' E 028°39'0 0.0
2017-Oct-02 17:30N 44°09' E 028°39'0 0.0
2017-Oct-02 16:57N 44°09' E 028°39'0 0.0
2017-Oct-02 16:30N 44°09' E 028°39'0 0.0
2017-Oct-02 16:00N 44°09' E 028°39'0 0.0
2017-Oct-02 15:30N 44°09' E 028°39'0 0.0
2017-Oct-02 15:00N 44°09' E 028°39'0 0.0
2017-Oct-02 14:30N 44°09' E 028°39'0 0.0
2017-Oct-02 14:00N 44°09' E 028°39'0 0.0
2017-Oct-02 13:30N 44°09' E 028°39'0 0.0
2017-Oct-02 13:00N 44°09' E 028°39'0 0.0
2017-Oct-02 12:30N 44°09' E 028°39'0 0.0
2017-Oct-02 12:00N 44°09' E 028°39'0 0.0
2017-Oct-02 11:30N 44°09' E 028°39'0 0.0
2017-Oct-02 11:00N 44°09' E 028°39'0 0.0
2017-Oct-02 10:30N 44°09' E 028°39'0 0.0
2017-Oct-02 10:00N 44°09' E 028°39'0 0.0
2017-Oct-02 09:30N 44°09' E 028°39'0 0.0
2017-Oct-02 09:00N 44°09' E 028°39'0 0.0
2017-Oct-02 08:30N 44°09' E 028°39'0 0.0
2017-Oct-02 08:00N 44°09' E 028°39'0 0.0
2017-Oct-02 07:30N 44°09' E 028°39'0 0.0
2017-Oct-02 07:00N 44°09' E 028°39'0 0.0
2017-Oct-02 06:30N 44°09' E 028°39'0 0.0
2017-Oct-02 06:00N 44°09' E 028°39'0 0.0
2017-Oct-02 05:30N 44°09' E 028°39'0 0.0
2017-Oct-02 05:00N 44°09' E 028°39'0 0.0
2017-Oct-02 04:30N 44°09' E 028°39'0 0.0
2017-Oct-02 04:00N 44°09' E 028°39'0 0.0
2017-Oct-02 03:30N 44°09' E 028°39'0 0.0
2017-Oct-02 03:00N 44°09' E 028°39'0 0.0
2017-Oct-02 02:30N 44°09' E 028°39'0 0.0
2017-Oct-02 02:00N 44°09' E 028°39'0 0.0
2017-Oct-02 01:30N 44°09' E 028°39'0 0.0
2017-Oct-02 01:00N 44°09' E 028°39'0 0.0
2017-Oct-02 00:30N 44°09' E 028°39'0 0.0
2017-Oct-02 00:00N 44°09' E 028°39'0 0.0
2017-Oct-01 23:30N 44°09' E 028°39'0 0.0
2017-Oct-01 23:00N 44°09' E 028°39'0 0.0
2017-Oct-01 22:30N 44°09' E 028°39'0 0.0
2017-Oct-01 22:00N 44°09' E 028°39'0 0.0
2017-Oct-01 21:30N 44°09' E 028°39'0 0.0
2017-Oct-01 21:00N 44°09' E 028°39'0 0.0
2017-Oct-01 20:30N 44°09' E 028°39'0 0.0
2017-Oct-01 20:00N 44°09' E 028°39'0 0.0
2017-Oct-01 19:30N 44°09' E 028°39'0 0.0
2017-Oct-01 19:00N 44°09' E 028°39'0 0.0
2017-Oct-01 18:30N 44°09' E 028°39'0 0.0
2017-Oct-01 18:00N 44°09' E 028°39'0 0.0
2017-Oct-01 17:27N 44°09' E 028°39'0 0.0
2017-Oct-01 17:00N 44°09' E 028°39'0 0.0
2017-Oct-01 16:30N 44°09' E 028°39'0 0.0
2017-Oct-01 16:00N 44°09' E 028°39'0 0.0
2017-Oct-01 15:30N 44°09' E 028°39'0 0.0
2017-Oct-01 15:00N 44°09' E 028°39'0 0.0
2017-Oct-01 14:27N 44°09' E 028°39'0 0.0
2017-Oct-01 14:00N 44°09' E 028°39'0 0.0
2017-Oct-01 13:30N 44°09' E 028°39'0 0.0
2017-Oct-01 13:00N 44°09' E 028°39'0 0.0
2017-Oct-01 12:30N 44°09' E 028°39'0 0.0
2017-Oct-01 12:00N 44°09' E 028°39'0 0.0
2017-Oct-01 11:30N 44°09' E 028°39'0 0.0
2017-Oct-01 11:00N 44°09' E 028°39'0 0.0
2017-Oct-01 10:30N 44°09' E 028°39'0 0.0
2017-Oct-01 10:00N 44°09' E 028°39'0 0.0
2017-Oct-01 09:30N 44°09' E 028°39'0 0.0
2017-Oct-01 09:00N 44°09' E 028°39'0 0.0
2017-Oct-01 08:30N 44°09' E 028°39'0 0.0
2017-Oct-01 08:00N 44°09' E 028°39'0 0.0
2017-Oct-01 07:30N 44°09' E 028°39'0 0.0
2017-Oct-01 07:00N 44°09' E 028°39'0 0.0
2017-Oct-01 06:30N 44°09' E 028°39'0 0.0
2017-Oct-01 06:00N 44°09' E 028°39'0 0.0
2017-Oct-01 05:30N 44°09' E 028°39'0 0.0
2017-Oct-01 05:00N 44°09' E 028°39'0 0.0
2017-Oct-01 04:27N 44°09' E 028°39'0 0.0
2017-Oct-01 04:00N 44°09' E 028°39'0 0.0
2017-Oct-01 03:30N 44°09' E 028°39'0 0.0
2017-Oct-01 03:00N 44°09' E 028°39'0 0.0
2017-Sep-30 02:00N 44°09' E 028°39'0 0.0
2017-Sep-30 01:30N 44°09' E 028°39'0 0.0
2017-Sep-30 01:00N 44°09' E 028°39'0 0.0
2017-Sep-30 00:30N 44°09' E 028°39'0 0.0
2017-Sep-30 00:00N 44°09' E 028°39'0 0.0
2017-Sep-29 23:30N 44°09' E 028°39'0 0.0
2017-Sep-29 23:00N 44°09' E 028°39'0 0.0
2017-Sep-29 22:30N 44°09' E 028°39'0 0.0
2017-Sep-29 22:00N 44°09' E 028°39'0 0.0
2017-Sep-29 21:30N 44°09' E 028°39'0 0.0
2017-Sep-29 21:00N 44°09' E 028°39'0 0.0
2017-Sep-29 20:30N 44°09' E 028°39'0 0.0
2017-Sep-29 20:00N 44°09' E 028°39'0 0.0
2017-Sep-29 19:27N 44°09' E 028°39'0 0.0
2017-Sep-29 19:00N 44°09' E 028°39'0 0.0
2017-Sep-29 18:30N 44°09' E 028°39'0 0.0
2017-Sep-29 18:00N 44°09' E 028°39'0 0.0
2017-Sep-29 17:30N 44°09' E 028°39'0 0.0
2017-Sep-29 17:00N 44°09' E 028°39'0 0.0
2017-Sep-29 16:30N 44°09' E 028°39'0 0.0
2017-Sep-29 16:00N 44°09' E 028°39'0 0.0
2017-Sep-29 15:30N 44°09' E 028°39'0 0.0
2017-Sep-29 15:00N 44°09' E 028°39'0 0.0
2017-Sep-29 14:30N 44°09' E 028°39'0 0.0
2017-Sep-29 14:00N 44°09' E 028°39'0 0.0
2017-Sep-29 13:30N 44°09' E 028°39'0 0.0
2017-Sep-29 13:00N 44°09' E 028°39'0 0.0
2017-Sep-29 12:27N 44°09' E 028°39'0 0.0
2017-Sep-29 12:00N 44°09' E 028°39'0 0.0
2017-Sep-29 11:30N 44°09' E 028°39'0 0.0
2017-Sep-29 11:00N 44°09' E 028°39'0 0.0
2017-Sep-29 10:30N 44°09' E 028°39'0 0.0
2017-Sep-29 09:57N 44°09' E 028°39'0 0.0
2017-Sep-29 09:30N 44°09' E 028°39'0 0.0
2017-Sep-29 09:00N 44°09' E 028°39'0 0.0
2017-Sep-29 08:30N 44°09' E 028°39'0 0.0
2017-Sep-29 08:00N 44°09' E 028°39'0 0.0
2017-Sep-29 07:30N 44°09' E 028°39'0 0.0
2017-Sep-29 07:00N 44°09' E 028°39'0 0.0
2017-Sep-29 06:30N 44°09' E 028°39'0 0.0
2017-Sep-29 05:57N 44°09' E 028°39'0 0.0
2017-Sep-29 05:30N 44°09' E 028°39'0 0.0
2017-Sep-29 05:00N 44°09' E 028°39'0 0.0
2017-Sep-29 04:30N 44°09' E 028°39'0 0.0
2017-Sep-29 04:00N 44°09' E 028°39'0 0.0
2017-Sep-29 03:30N 44°09' E 028°39'0 0.0
2017-Sep-29 03:00N 44°09' E 028°39'0 0.0
2017-Sep-29 02:30N 44°09' E 028°39'0 0.0
2017-Sep-29 02:00N 44°09' E 028°39'0 0.0
2017-Sep-29 01:30N 44°09' E 028°39'0 0.0
2017-Sep-29 01:00N 44°09' E 028°39'0 0.0
2017-Sep-29 00:30N 44°09' E 028°39'0 0.0
2017-Sep-29 00:00N 44°09' E 028°39'0 0.0
2017-Sep-28 23:30N 44°09' E 028°39'0 0.0
2017-Sep-28 23:00N 44°09' E 028°39'0 0.0
2017-Sep-28 22:30N 44°09' E 028°39'0 0.0
2017-Sep-28 22:00N 44°09' E 028°39'0 0.0
2017-Sep-28 21:30N 44°09' E 028°39'0 0.0
2017-Sep-28 21:00N 44°09' E 028°39'0 0.0
2017-Sep-28 20:30N 44°09' E 028°39'0 0.0
2017-Sep-28 19:57N 44°09' E 028°39'0 0.0
2017-Sep-28 19:30N 44°09' E 028°39'0 0.0
2017-Sep-28 19:00N 44°09' E 028°39'0 0.0
2017-Sep-28 18:30N 44°09' E 028°39'0 0.0
2017-Sep-28 18:00N 44°09' E 028°39'0 0.0
2017-Sep-28 17:30N 44°09' E 028°39'0 0.0
2017-Sep-28 17:00N 44°09' E 028°39'0 0.0
2017-Sep-28 16:30N 44°09' E 028°39'0 0.0
2017-Sep-28 15:57N 44°09' E 028°39'0 0.0
2017-Sep-28 15:30N 44°09' E 028°39'0 0.0
2017-Sep-28 15:00N 44°09' E 028°39'0 0.0
2017-Sep-28 14:30N 44°09' E 028°39'0 0.0
2017-Sep-28 13:54N 44°09' E 028°39'0 0.0
2017-Sep-28 13:30N 44°09' E 028°39'0 0.0
2017-Sep-28 12:57N 44°09' E 028°39'0 0.0
2017-Sep-28 12:30N 44°09' E 028°39'0 0.0
2017-Sep-28 12:00N 44°09' E 028°39'0 0.0
2017-Sep-28 11:27N 44°09' E 028°39'0 0.0
2017-Sep-28 11:00N 44°09' E 028°39'0 0.0
2017-Sep-28 10:30N 44°09' E 028°39'0 0.0
2017-Sep-28 09:57N 44°09' E 028°39'0 0.0
2017-Sep-28 09:30N 44°09' E 028°39'0 0.0
2017-Sep-28 09:00N 44°09' E 028°39'0 0.0
2017-Sep-28 08:30N 44°09' E 028°39'0 0.0
2017-Sep-28 08:00N 44°09' E 028°39'0 0.0
2017-Sep-28 07:30N 44°09' E 028°39'0 0.0
2017-Sep-28 07:00N 44°09' E 028°39'0 0.0
2017-Sep-28 06:30N 44°09' E 028°39'0 0.0
2017-Sep-28 06:00N 44°09' E 028°39'0 0.0
2017-Sep-28 05:30N 44°09' E 028°39'0 0.0
2017-Sep-28 05:00N 44°09' E 028°39'0 0.0
2017-Sep-28 04:30N 44°09' E 028°39'0 0.0
2017-Sep-28 04:00N 44°09' E 028°39'0 0.0
2017-Sep-28 03:30N 44°09' E 028°39'0 0.0
2017-Sep-28 03:00N 44°09' E 028°39'0 0.0
2017-Sep-28 02:30N 44°09' E 028°39'0 0.0
2017-Sep-28 02:00N 44°09' E 028°39'0 0.0
2017-Sep-28 01:30N 44°09' E 028°39'0 0.0
2017-Sep-28 01:00N 44°09' E 028°39'0 0.0
2017-Sep-28 00:30N 44°09' E 028°39'0 0.0
2017-Sep-28 00:00N 44°09' E 028°39'0 0.0
2017-Sep-27 23:30N 44°09' E 028°39'0 0.0
2017-Sep-27 23:00N 44°09' E 028°39'0 0.0
2017-Sep-27 22:30N 44°09' E 028°39'0 0.0
2017-Sep-27 22:00N 44°09' E 028°39'0 0.0
2017-Sep-27 21:30N 44°09' E 028°39'0 0.0
2017-Sep-27 21:00N 44°09' E 028°39'0 0.0
2017-Sep-27 20:27N 44°09' E 028°39'0 0.0
2017-Sep-27 20:00N 44°09' E 028°39'  

Dump ship's entire track history